sensor_id;sensor_type;location;lat;lon;timestamp;pressure;altitude;pressure_sealevel;temperature;humidity
74578;BME280;63173;49.086;33.418;2023-11-21T00:00:19;100090.34;;;-4.33;58.30
74578;BME280;63173;49.086;33.418;2023-11-21T00:02:44;100090.97;;;-4.21;56.41
74578;BME280;63173;49.086;33.418;2023-11-21T00:05:13;100101.03;;;-5.06;59.02
74578;BME280;63173;49.086;33.418;2023-11-21T00:07:40;100096.53;;;-4.69;58.86
74578;BME280;63173;49.086;33.418;2023-11-21T00:10:06;100100.19;;;-4.49;57.44
74578;BME280;63173;49.086;33.418;2023-11-21T00:12:33;100102.25;;;-4.92;58.00
74578;BME280;63173;49.086;33.418;2023-11-21T00:14:59;100105.97;;;-4.67;58.83
74578;BME280;63173;49.086;33.418;2023-11-21T00:17:24;100103.69;;;-4.48;57.76
74578;BME280;63173;49.086;33.418;2023-11-21T00:19:50;100111.97;;;-4.55;57.76
74578;BME280;63173;49.086;33.418;2023-11-21T00:22:17;100108.84;;;-4.78;59.32
74578;BME280;63173;49.086;33.418;2023-11-21T00:24:43;100107.31;;;-4.64;57.82
74578;BME280;63173;49.086;33.418;2023-11-21T00:27:09;100111.69;;;-4.90;58.48
74578;BME280;63173;49.086;33.418;2023-11-21T00:29:34;100100.94;;;-4.90;57.44
74578;BME280;63173;49.086;33.418;2023-11-21T00:31:59;100108.75;;;-4.88;58.34
74578;BME280;63173;49.086;33.418;2023-11-21T00:34:25;100107.59;;;-4.66;57.45
74578;BME280;63173;49.086;33.418;2023-11-21T00:36:50;100106.72;;;-4.76;58.29
74578;BME280;63173;49.086;33.418;2023-11-21T00:39:16;100109.84;;;-4.84;58.02
74578;BME280;63173;49.086;33.418;2023-11-21T00:41:42;100102.72;;;-4.32;57.92
74578;BME280;63173;49.086;33.418;2023-11-21T00:44:07;100110.09;;;-4.54;57.72
74578;BME280;63173;49.086;33.418;2023-11-21T00:46:33;100114.78;;;-4.76;58.34
74578;BME280;63173;49.086;33.418;2023-11-21T00:48:58;100104.94;;;-4.92;57.76
74578;BME280;63173;49.086;33.418;2023-11-21T00:51:24;100112.50;;;-4.89;58.44
74578;BME280;63173;49.086;33.418;2023-11-21T00:53:49;100119.88;;;-5.06;57.62
74578;BME280;63173;49.086;33.418;2023-11-21T00:56:15;100116.47;;;-4.97;58.21
74578;BME280;63173;49.086;33.418;2023-11-21T00:58:41;100113.69;;;-5.07;59.17
74578;BME280;63173;49.086;33.418;2023-11-21T01:01:14;100108.31;;;-4.75;59.04
74578;BME280;63173;49.086;33.418;2023-11-21T01:03:40;100114.66;;;-4.60;58.66
74578;BME280;63173;49.086;33.418;2023-11-21T01:06:06;100111.31;;;-4.40;58.71
74578;BME280;63173;49.086;33.418;2023-11-21T01:08:33;100107.19;;;-4.79;58.66
74578;BME280;63173;49.086;33.418;2023-11-21T01:10:58;100111.78;;;-4.80;58.78
74578;BME280;63173;49.086;33.418;2023-11-21T01:13:24;100117.28;;;-4.96;59.07
74578;BME280;63173;49.086;33.418;2023-11-21T01:15:55;100118.16;;;-4.59;58.84
74578;BME280;63173;49.086;33.418;2023-11-21T01:18:20;100119.50;;;-4.88;59.63
74578;BME280;63173;49.086;33.418;2023-11-21T01:20:46;100128.25;;;-4.76;59.29
74578;BME280;63173;49.086;33.418;2023-11-21T01:23:15;100138.09;;;-4.87;59.78
74578;BME280;63173;49.086;33.418;2023-11-21T01:25:41;100132.81;;;-5.30;60.51
74578;BME280;63173;49.086;33.418;2023-11-21T01:28:06;100141.59;;;-5.13;60.85
74578;BME280;63173;49.086;33.418;2023-11-21T01:30:32;100137.69;;;-5.00;59.58
74578;BME280;63173;49.086;33.418;2023-11-21T01:32:58;100135.69;;;-4.83;59.63
74578;BME280;63173;49.086;33.418;2023-11-21T01:35:24;100134.75;;;-4.72;59.23
74578;BME280;63173;49.086;33.418;2023-11-21T01:37:50;100136.41;;;-4.66;59.09
74578;BME280;63173;49.086;33.418;2023-11-21T01:40:16;100139.28;;;-5.04;59.84
74578;BME280;63173;49.086;33.418;2023-11-21T01:42:42;100143.44;;;-5.18;58.96
74578;BME280;63173;49.086;33.418;2023-11-21T01:45:13;100137.56;;;-4.57;58.46
74578;BME280;63173;49.086;33.418;2023-11-21T01:47:40;100148.56;;;-4.90;61.06
74578;BME280;63173;49.086;33.418;2023-11-21T01:50:08;100149.94;;;-5.14;60.34
74578;BME280;63173;49.086;33.418;2023-11-21T01:52:37;100147.75;;;-5.17;60.30
74578;BME280;63173;49.086;33.418;2023-11-21T01:55:06;100152.00;;;-4.68;59.68
74578;BME280;63173;49.086;33.418;2023-11-21T01:57:34;100157.31;;;-5.05;60.18
74578;BME280;63173;49.086;33.418;2023-11-21T02:00:01;100147.41;;;-4.99;60.37
74578;BME280;63173;49.086;33.418;2023-11-21T02:02:36;100153.34;;;-4.97;59.37
74578;BME280;63173;49.086;33.418;2023-11-21T02:05:01;100157.41;;;-4.95;60.04
74578;BME280;63173;49.086;33.418;2023-11-21T02:07:27;100160.03;;;-5.00;61.16
74578;BME280;63173;49.086;33.418;2023-11-21T02:09:52;100147.22;;;-4.61;59.64
74578;BME280;63173;49.086;33.418;2023-11-21T02:12:18;100145.75;;;-4.74;59.43
74578;BME280;63173;49.086;33.418;2023-11-21T02:14:43;100147.56;;;-4.21;59.10
74578;BME280;63173;49.086;33.418;2023-11-21T02:17:10;100150.59;;;-4.44;57.85
74578;BME280;63173;49.086;33.418;2023-11-21T02:19:35;100161.28;;;-4.54;58.75
74578;BME280;63173;49.086;33.418;2023-11-21T02:22:01;100154.22;;;-4.60;59.86
74578;BME280;63173;49.086;33.418;2023-11-21T02:24:32;100160.50;;;-4.18;57.60
74578;BME280;63173;49.086;33.418;2023-11-21T02:26:57;100163.66;;;-4.63;58.32
74578;BME280;63173;49.086;33.418;2023-11-21T02:29:23;100168.25;;;-4.58;58.82
74578;BME280;63173;49.086;33.418;2023-11-21T02:31:54;100167.53;;;-4.49;59.31
74578;BME280;63173;49.086;33.418;2023-11-21T02:34:20;100171.75;;;-4.26;59.08
74578;BME280;63173;49.086;33.418;2023-11-21T02:36:47;100173.06;;;-4.29;57.69
74578;BME280;63173;49.086;33.418;2023-11-21T02:39:16;100176.59;;;-4.60;59.37
74578;BME280;63173;49.086;33.418;2023-11-21T02:41:43;100181.13;;;-4.34;59.65
74578;BME280;63173;49.086;33.418;2023-11-21T02:44:09;100175.22;;;-4.62;58.89
74578;BME280;63173;49.086;33.418;2023-11-21T02:46:35;100186.63;;;-5.30;59.81
74578;BME280;63173;49.086;33.418;2023-11-21T02:49:02;100183.88;;;-5.35;62.27
74578;BME280;63173;49.086;33.418;2023-11-21T02:51:29;100188.19;;;-4.86;60.38
74578;BME280;63173;49.086;33.418;2023-11-21T02:53:55;100189.53;;;-4.57;59.10
74578;BME280;63173;49.086;33.418;2023-11-21T02:56:24;100198.09;;;-4.65;60.88
74578;BME280;63173;49.086;33.418;2023-11-21T02:58:51;100203.50;;;-4.65;59.81
74578;BME280;63173;49.086;33.418;2023-11-21T03:01:16;100206.69;;;-4.68;59.12
74578;BME280;63173;49.086;33.418;2023-11-21T03:03:42;100205.06;;;-4.69;58.76
74578;BME280;63173;49.086;33.418;2023-11-21T03:06:07;100207.19;;;-4.44;58.61
74578;BME280;63173;49.086;33.418;2023-11-21T03:08:33;100204.56;;;-4.34;58.41
74578;BME280;63173;49.086;33.418;2023-11-21T03:10:59;100204.22;;;-4.43;58.61
74578;BME280;63173;49.086;33.418;2023-11-21T03:13:24;100217.97;;;-4.44;58.62
74578;BME280;63173;49.086;33.418;2023-11-21T03:15:50;100215.66;;;-5.10;59.19
74578;BME280;63173;49.086;33.418;2023-11-21T03:18:15;100232.31;;;-4.87;60.15
74578;BME280;63173;49.086;33.418;2023-11-21T03:20:42;100223.56;;;-4.19;59.08
74578;BME280;63173;49.086;33.418;2023-11-21T03:23:11;100234.84;;;-4.54;59.57
74578;BME280;63173;49.086;33.418;2023-11-21T03:25:36;100239.03;;;-4.36;59.54
74578;BME280;63173;49.086;33.418;2023-11-21T03:28:02;100234.44;;;-4.89;59.33
74578;BME280;63173;49.086;33.418;2023-11-21T03:30:28;100234.06;;;-4.49;59.09
74578;BME280;63173;49.086;33.418;2023-11-21T03:32:53;100235.47;;;-4.42;58.61
74578;BME280;63173;49.086;33.418;2023-11-21T03:35:19;100228.78;;;-4.66;58.99
74578;BME280;63173;49.086;33.418;2023-11-21T03:37:46;100234.59;;;-5.00;60.17
74578;BME280;63173;49.086;33.418;2023-11-21T03:40:11;100236.97;;;-4.82;59.20
74578;BME280;63173;49.086;33.418;2023-11-21T03:42:38;100235.31;;;-5.10;59.73
74578;BME280;63173;49.086;33.418;2023-11-21T03:45:05;100233.75;;;-4.53;60.04
74578;BME280;63173;49.086;33.418;2023-11-21T03:47:30;100230.50;;;-4.28;58.55
74578;BME280;63173;49.086;33.418;2023-11-21T03:49:56;100248.00;;;-4.31;57.82
74578;BME280;63173;49.086;33.418;2023-11-21T03:52:21;100241.63;;;-4.19;58.14
74578;BME280;63173;49.086;33.418;2023-11-21T03:54:47;100250.28;;;-4.71;59.35
74578;BME280;63173;49.086;33.418;2023-11-21T03:57:12;100252.75;;;-4.64;59.40
74578;BME280;63173;49.086;33.418;2023-11-21T03:59:42;100255.56;;;-4.28;59.35
74578;BME280;63173;49.086;33.418;2023-11-21T04:02:07;100249.13;;;-4.53;59.37
74578;BME280;63173;49.086;33.418;2023-11-21T04:04:34;100255.75;;;-4.34;58.04
74578;BME280;63173;49.086;33.418;2023-11-21T04:06:59;100257.09;;;-4.37;57.68
74578;BME280;63173;49.086;33.418;2023-11-21T04:09:25;100253.88;;;-4.07;57.37
74578;BME280;63173;49.086;33.418;2023-11-21T04:11:53;100257.19;;;-4.80;58.54
74578;BME280;63173;49.086;33.418;2023-11-21T04:14:19;100254.72;;;-4.81;59.71
74578;BME280;63173;49.086;33.418;2023-11-21T04:16:45;100264.16;;;-4.84;59.34
74578;BME280;63173;49.086;33.418;2023-11-21T04:19:10;100267.66;;;-4.57;59.31
74578;BME280;63173;49.086;33.418;2023-11-21T04:21:36;100271.69;;;-4.59;59.33
74578;BME280;63173;49.086;33.418;2023-11-21T04:24:02;100276.03;;;-5.01;58.75
74578;BME280;63173;49.086;33.418;2023-11-21T04:26:28;100279.97;;;-4.39;58.90
74578;BME280;63173;49.086;33.418;2023-11-21T04:28:53;100275.41;;;-4.39;58.31
74578;BME280;63173;49.086;33.418;2023-11-21T04:31:18;100276.72;;;-4.14;57.86
74578;BME280;63173;49.086;33.418;2023-11-21T04:33:44;100276.75;;;-4.09;57.33
74578;BME280;63173;49.086;33.418;2023-11-21T04:36:10;100278.66;;;-4.37;58.12
74578;BME280;63173;49.086;33.418;2023-11-21T04:38:35;100279.84;;;-4.49;58.34
74578;BME280;63173;49.086;33.418;2023-11-21T04:41:01;100272.06;;;-3.92;56.89
74578;BME280;63173;49.086;33.418;2023-11-21T04:43:27;100276.28;;;-4.55;56.87
74578;BME280;63173;49.086;33.418;2023-11-21T04:45:53;100282.84;;;-4.72;59.34
74578;BME280;63173;49.086;33.418;2023-11-21T04:48:18;100290.69;;;-5.14;60.31
74578;BME280;63173;49.086;33.418;2023-11-21T04:50:43;100289.59;;;-4.70;58.65
74578;BME280;63173;49.086;33.418;2023-11-21T04:53:09;100296.84;;;-5.35;59.47
74578;BME280;63173;49.086;33.418;2023-11-21T04:55:34;100296.91;;;-5.30;60.80
74578;BME280;63173;49.086;33.418;2023-11-21T04:58:00;100302.19;;;-5.57;62.12
74578;BME280;63173;49.086;33.418;2023-11-21T05:00:25;100306.28;;;-4.94;61.19
74578;BME280;63173;49.086;33.418;2023-11-21T05:02:51;100311.97;;;-4.91;60.72
74578;BME280;63173;49.086;33.418;2023-11-21T05:05:17;100305.41;;;-5.22;61.12
74578;BME280;63173;49.086;33.418;2023-11-21T05:07:43;100314.72;;;-5.07;60.03
74578;BME280;63173;49.086;33.418;2023-11-21T05:10:08;100322.41;;;-5.16;60.05
74578;BME280;63173;49.086;33.418;2023-11-21T05:12:37;100324.25;;;-5.00;59.40
74578;BME280;63173;49.086;33.418;2023-11-21T05:15:07;100323.31;;;-4.67;59.98
74578;BME280;63173;49.086;33.418;2023-11-21T05:17:37;100328.19;;;-5.07;60.25
74578;BME280;63173;49.086;33.418;2023-11-21T05:20:04;100335.94;;;-4.68;60.05
74578;BME280;63173;49.086;33.418;2023-11-21T05:22:34;100335.19;;;-5.06;59.87
74578;BME280;63173;49.086;33.418;2023-11-21T05:24:59;100342.03;;;-5.54;60.07
74578;BME280;63173;49.086;33.418;2023-11-21T05:27:25;100344.13;;;-5.23;60.03
74578;BME280;63173;49.086;33.418;2023-11-21T05:29:50;100350.84;;;-5.91;62.16
74578;BME280;63173;49.086;33.418;2023-11-21T05:32:16;100347.16;;;-4.97;60.38
74578;BME280;63173;49.086;33.418;2023-11-21T05:34:42;100356.63;;;-5.11;61.50
74578;BME280;63173;49.086;33.418;2023-11-21T05:37:08;100348.06;;;-4.70;60.32
74578;BME280;63173;49.086;33.418;2023-11-21T05:39:33;100365.56;;;-4.68;59.22
74578;BME280;63173;49.086;33.418;2023-11-21T05:41:59;100367.97;;;-4.71;59.04
74578;BME280;63173;49.086;33.418;2023-11-21T05:44:25;100376.28;;;-4.51;59.20
74578;BME280;63173;49.086;33.418;2023-11-21T05:46:50;100388.81;;;-4.62;58.82
74578;BME280;63173;49.086;33.418;2023-11-21T05:49:16;100380.56;;;-4.55;58.45
74578;BME280;63173;49.086;33.418;2023-11-21T05:51:42;100382.38;;;-4.82;59.95
74578;BME280;63173;49.086;33.418;2023-11-21T05:54:07;100382.69;;;-5.34;60.85
74578;BME280;63173;49.086;33.418;2023-11-21T05:56:33;100385.47;;;-5.78;62.12
74578;BME280;63173;49.086;33.418;2023-11-21T05:58:58;100383.84;;;-6.24;64.18
74578;BME280;63173;49.086;33.418;2023-11-21T06:01:25;100396.22;;;-5.62;61.87
74578;BME280;63173;49.086;33.418;2023-11-21T06:03:54;100395.00;;;-5.54;63.29
74578;BME280;63173;49.086;33.418;2023-11-21T06:06:20;100401.69;;;-5.24;61.40
74578;BME280;63173;49.086;33.418;2023-11-21T06:08:48;100404.88;;;-5.43;61.71
74578;BME280;63173;49.086;33.418;2023-11-21T06:11:13;100404.88;;;-5.60;61.65
74578;BME280;63173;49.086;33.418;2023-11-21T06:13:39;100401.81;;;-5.96;62.82
74578;BME280;63173;49.086;33.418;2023-11-21T06:16:05;100411.47;;;-5.51;62.69
74578;BME280;63173;49.086;33.418;2023-11-21T06:18:30;100415.06;;;-5.62;60.27
74578;BME280;63173;49.086;33.418;2023-11-21T06:20:56;100411.16;;;-5.38;60.28
74578;BME280;63173;49.086;33.418;2023-11-21T06:23:21;100408.28;;;-5.64;60.17
74578;BME280;63173;49.086;33.418;2023-11-21T06:25:47;100417.53;;;-5.27;58.87
74578;BME280;63173;49.086;33.418;2023-11-21T06:28:12;100423.47;;;-4.27;56.51
74578;BME280;63173;49.086;33.418;2023-11-21T06:30:38;100408.88;;;-5.29;55.70
74578;BME280;63173;49.086;33.418;2023-11-21T06:33:03;100414.00;;;-5.11;56.44
74578;BME280;63173;49.086;33.418;2023-11-21T06:35:29;100411.22;;;-5.16;55.42
74578;BME280;63173;49.086;33.418;2023-11-21T06:37:57;100414.31;;;-5.74;58.25
74578;BME280;63173;49.086;33.418;2023-11-21T06:40:23;100419.44;;;-5.72;58.41
74578;BME280;63173;49.086;33.418;2023-11-21T06:42:50;100417.88;;;-4.85;56.51
74578;BME280;63173;49.086;33.418;2023-11-21T06:45:16;100422.88;;;-5.60;57.42
74578;BME280;63173;49.086;33.418;2023-11-21T06:47:41;100412.91;;;-4.93;56.42
74578;BME280;63173;49.086;33.418;2023-11-21T06:50:07;100420.16;;;-4.56;53.83
74578;BME280;63173;49.086;33.418;2023-11-21T06:52:33;100425.19;;;-3.68;52.81
74578;BME280;63173;49.086;33.418;2023-11-21T06:54:58;100431.34;;;-4.64;53.34
74578;BME280;63173;49.086;33.418;2023-11-21T06:57:24;100430.03;;;-3.96;52.53
74578;BME280;63173;49.086;33.418;2023-11-21T06:59:49;100430.16;;;-3.55;51.29
74578;BME280;63173;49.086;33.418;2023-11-21T07:02:18;100431.28;;;-3.51;51.84
74578;BME280;63173;49.086;33.418;2023-11-21T07:04:46;100426.44;;;-3.80;52.52
74578;BME280;63173;49.086;33.418;2023-11-21T07:07:11;100421.63;;;-4.00;52.65
74578;BME280;63173;49.086;33.418;2023-11-21T07:09:37;100427.66;;;-3.93;52.30
74578;BME280;63173;49.086;33.418;2023-11-21T07:12:03;100417.81;;;-4.04;52.24
74578;BME280;63173;49.086;33.418;2023-11-21T07:14:29;100415.06;;;-4.52;51.64
74578;BME280;63173;49.086;33.418;2023-11-21T07:16:54;100428.50;;;-4.14;51.26
74578;BME280;63173;49.086;33.418;2023-11-21T07:19:20;100435.53;;;-3.60;51.10
74578;BME280;63173;49.086;33.418;2023-11-21T07:21:47;100428.16;;;-3.38;49.76
74578;BME280;63173;49.086;33.418;2023-11-21T07:24:17;100435.44;;;-4.18;51.00
74578;BME280;63173;49.086;33.418;2023-11-21T07:26:43;100445.03;;;-4.27;51.85
74578;BME280;63173;49.086;33.418;2023-11-21T07:29:08;100445.91;;;-3.47;50.35
74578;BME280;63173;49.086;33.418;2023-11-21T07:31:34;100442.19;;;-3.41;49.45
74578;BME280;63173;49.086;33.418;2023-11-21T07:33:59;100453.38;;;-3.27;49.43
74578;BME280;63173;49.086;33.418;2023-11-21T07:36:26;100447.63;;;-3.62;47.75
74578;BME280;63173;49.086;33.418;2023-11-21T07:38:51;100447.59;;;-3.36;47.74
74578;BME280;63173;49.086;33.418;2023-11-21T07:41:17;100452.09;;;-3.51;47.26
74578;BME280;63173;49.086;33.418;2023-11-21T07:43:44;100439.72;;;-4.98;49.64
74578;BME280;63173;49.086;33.418;2023-11-21T07:46:10;100435.66;;;-4.84;49.69
74578;BME280;63173;49.086;33.418;2023-11-21T07:48:35;100442.13;;;-4.64;50.32
74578;BME280;63173;49.086;33.418;2023-11-21T07:51:02;100447.63;;;-4.75;48.56
74578;BME280;63173;49.086;33.418;2023-11-21T07:53:30;100444.41;;;-3.91;48.72
74578;BME280;63173;49.086;33.418;2023-11-21T07:55:57;100448.13;;;-3.39;46.30
74578;BME280;63173;49.086;33.418;2023-11-21T07:58:22;100450.88;;;-4.13;47.28
74578;BME280;63173;49.086;33.418;2023-11-21T08:00:52;100454.25;;;-3.75;48.38
74578;BME280;63173;49.086;33.418;2023-11-21T08:03:17;100448.31;;;-3.50;47.17
74578;BME280;63173;49.086;33.418;2023-11-21T08:05:43;100457.81;;;-3.96;46.48
74578;BME280;63173;49.086;33.418;2023-11-21T08:08:08;100451.22;;;-4.27;48.96
74578;BME280;63173;49.086;33.418;2023-11-21T08:10:34;100455.78;;;-3.57;47.64
74578;BME280;63173;49.086;33.418;2023-11-21T08:13:01;100457.56;;;-3.09;45.90
74578;BME280;63173;49.086;33.418;2023-11-21T08:15:26;100446.66;;;-3.24;44.76
74578;BME280;63173;49.086;33.418;2023-11-21T08:17:52;100446.97;;;-2.79;44.23
74578;BME280;63173;49.086;33.418;2023-11-21T08:20:18;100451.94;;;-3.66;45.03
74578;BME280;63173;49.086;33.418;2023-11-21T08:22:44;100449.50;;;-3.04;44.74
74578;BME280;63173;49.086;33.418;2023-11-21T08:25:09;100453.31;;;-3.00;43.51
74578;BME280;63173;49.086;33.418;2023-11-21T08:27:35;100453.25;;;-3.42;45.04
74578;BME280;63173;49.086;33.418;2023-11-21T08:30:02;100451.16;;;-2.57;43.52
74578;BME280;63173;49.086;33.418;2023-11-21T08:32:28;100456.25;;;-3.34;42.33
74578;BME280;63173;49.086;33.418;2023-11-21T08:34:55;100454.22;;;-3.80;44.27
74578;BME280;63173;49.086;33.418;2023-11-21T08:37:20;100448.00;;;-2.85;42.35
74578;BME280;63173;49.086;33.418;2023-11-21T08:39:47;100440.28;;;-2.62;43.10
74578;BME280;63173;49.086;33.418;2023-11-21T08:42:13;100444.50;;;-2.34;43.85
74578;BME280;63173;49.086;33.418;2023-11-21T08:44:39;100448.09;;;-2.70;43.64
74578;BME280;63173;49.086;33.418;2023-11-21T08:47:05;100449.72;;;-3.43;45.02
74578;BME280;63173;49.086;33.418;2023-11-21T08:49:31;100446.66;;;-2.36;43.33
74578;BME280;63173;49.086;33.418;2023-11-21T08:51:56;100448.66;;;-5.31;46.82
74578;BME280;63173;49.086;33.418;2023-11-21T08:54:24;100459.66;;;-3.16;44.86
74578;BME280;63173;49.086;33.418;2023-11-21T08:56:51;100471.34;;;-3.64;45.32
74578;BME280;63173;49.086;33.418;2023-11-21T08:59:16;100468.53;;;-4.44;47.04
74578;BME280;63173;49.086;33.418;2023-11-21T09:01:42;100458.09;;;-4.95;46.06
74578;BME280;63173;49.086;33.418;2023-11-21T09:04:07;100461.38;;;-3.37;43.15
74578;BME280;63173;49.086;33.418;2023-11-21T09:06:33;100455.38;;;-2.71;42.71
74578;BME280;63173;49.086;33.418;2023-11-21T09:08:58;100464.03;;;-3.10;43.19
74578;BME280;63173;49.086;33.418;2023-11-21T09:11:24;100462.44;;;-2.70;42.44
74578;BME280;63173;49.086;33.418;2023-11-21T09:13:50;100470.78;;;-2.71;43.72
74578;BME280;63173;49.086;33.418;2023-11-21T09:16:16;100466.34;;;-3.24;44.21
74578;BME280;63173;49.086;33.418;2023-11-21T09:18:42;100469.59;;;-3.22;43.51
74578;BME280;63173;49.086;33.418;2023-11-21T09:21:07;100465.31;;;-2.34;42.14
74578;BME280;63173;49.086;33.418;2023-11-21T09:23:34;100462.00;;;-1.80;42.15
74578;BME280;63173;49.086;33.418;2023-11-21T09:25:59;100445.13;;;-2.12;41.86
74578;BME280;63173;49.086;33.418;2023-11-21T09:28:26;100456.19;;;-2.70;43.86
74578;BME280;63173;49.086;33.418;2023-11-21T09:30:53;100452.41;;;-2.69;42.79
74578;BME280;63173;49.086;33.418;2023-11-21T09:33:18;100460.03;;;-2.56;41.91
74578;BME280;63173;49.086;33.418;2023-11-21T09:35:44;100464.75;;;-2.37;42.65
74578;BME280;63173;49.086;33.418;2023-11-21T09:38:10;100472.34;;;-1.52;40.71
74578;BME280;63173;49.086;33.418;2023-11-21T09:40:36;100466.44;;;-1.28;39.64
74578;BME280;63173;49.086;33.418;2023-11-21T09:43:09;100461.81;;;-1.33;40.71
74578;BME280;63173;49.086;33.418;2023-11-21T09:45:45;100468.31;;;-0.99;39.41
74578;BME280;63173;49.086;33.418;2023-11-21T09:48:13;100458.41;;;-2.00;40.19
74578;BME280;63173;49.086;33.418;2023-11-21T09:50:40;100463.88;;;-1.80;40.36
74578;BME280;63173;49.086;33.418;2023-11-21T09:53:19;100454.28;;;-2.28;40.47
74578;BME280;63173;49.086;33.418;2023-11-21T09:55:51;100456.59;;;-1.75;39.31
74578;BME280;63173;49.086;33.418;2023-11-21T09:58:18;100457.81;;;-2.17;40.87
74578;BME280;63173;49.086;33.418;2023-11-21T10:00:49;100469.22;;;-2.62;41.53
74578;BME280;63173;49.086;33.418;2023-11-21T10:03:15;100462.50;;;-1.93;41.41
74578;BME280;63173;49.086;33.418;2023-11-21T10:05:45;100463.97;;;-0.95;42.23
74578;BME280;63173;49.086;33.418;2023-11-21T10:08:15;100460.19;;;-1.14;39.98
74578;BME280;63173;49.086;33.418;2023-11-21T10:10:44;100469.13;;;-0.93;40.96
74578;BME280;63173;49.086;33.418;2023-11-21T10:13:12;100473.47;;;-0.92;39.96
74578;BME280;63173;49.086;33.418;2023-11-21T10:15:42;100470.78;;;-1.07;39.88
74578;BME280;63173;49.086;33.418;2023-11-21T10:18:14;100468.31;;;-1.34;39.51
74578;BME280;63173;49.086;33.418;2023-11-21T10:20:40;100477.28;;;-1.18;41.69
74578;BME280;63173;49.086;33.418;2023-11-21T10:23:06;100476.41;;;-1.64;41.75
74578;BME280;63173;49.086;33.418;2023-11-21T10:25:33;100482.38;;;-2.29;41.38
74578;BME280;63173;49.086;33.418;2023-11-21T10:27:59;100475.63;;;-2.26;40.73
74578;BME280;63173;49.086;33.418;2023-11-21T10:30:37;100486.00;;;-2.97;41.69
74578;BME280;63173;49.086;33.418;2023-11-21T10:33:07;100482.97;;;-3.64;44.23
74578;BME280;63173;49.086;33.418;2023-11-21T10:35:47;100486.50;;;-3.32;43.79
74578;BME280;63173;49.086;33.418;2023-11-21T10:38:18;100486.03;;;-3.28;43.32
74578;BME280;63173;49.086;33.418;2023-11-21T10:40:46;100484.00;;;-2.75;42.60
74578;BME280;63173;49.086;33.418;2023-11-21T10:43:13;100490.88;;;-3.25;43.16
74578;BME280;63173;49.086;33.418;2023-11-21T10:45:40;100498.31;;;-2.74;41.97
74578;BME280;63173;49.086;33.418;2023-11-21T10:48:06;100496.34;;;-2.89;42.49
74578;BME280;63173;49.086;33.418;2023-11-21T10:50:41;100493.59;;;-3.25;43.57
74578;BME280;63173;49.086;33.418;2023-11-21T10:53:07;100496.72;;;-2.70;41.70
74578;BME280;63173;49.086;33.418;2023-11-21T10:55:33;100496.09;;;-2.41;41.19
74578;BME280;63173;49.086;33.418;2023-11-21T10:58:03;100498.59;;;-2.71;41.90
74578;BME280;63173;49.086;33.418;2023-11-21T11:00:31;100498.84;;;-2.77;42.98
74578;BME280;63173;49.086;33.418;2023-11-21T11:02:57;100495.63;;;-2.74;43.80
74578;BME280;63173;49.086;33.418;2023-11-21T11:05:25;100490.22;;;-2.27;41.89
74578;BME280;63173;49.086;33.418;2023-11-21T11:08:13;100485.94;;;-1.31;40.90
74578;BME280;63173;49.086;33.418;2023-11-21T11:10:38;100484.81;;;-1.46;40.74
74578;BME280;63173;49.086;33.418;2023-11-21T11:13:04;100493.75;;;-0.60;37.83
74578;BME280;63173;49.086;33.418;2023-11-21T11:15:31;100497.84;;;-0.77;37.46
74578;BME280;63173;49.086;33.418;2023-11-21T11:17:59;100486.22;;;0.01;37.83
74578;BME280;63173;49.086;33.418;2023-11-21T11:20:34;100494.81;;;0.28;37.54
74578;BME280;63173;49.086;33.418;2023-11-21T11:28:47;100493.28;;;0.02;38.95
74578;BME280;63173;49.086;33.418;2023-11-21T11:37:06;100497.56;;;0.18;38.30
74578;BME280;63173;49.086;33.418;2023-11-21T11:39:38;100506.41;;;0.44;38.09
74578;BME280;63173;49.086;33.418;2023-11-21T11:42:08;100497.94;;;-0.08;39.84
74578;BME280;63173;49.086;33.418;2023-11-21T11:50:12;100507.63;;;-1.16;41.77
74578;BME280;63173;49.086;33.418;2023-11-21T11:52:52;100511.13;;;-1.06;39.81
74578;BME280;63173;49.086;33.418;2023-11-21T11:55:24;100501.00;;;-1.71;41.99
74578;BME280;63173;49.086;33.418;2023-11-21T11:57:53;100505.44;;;-1.19;40.99
74578;BME280;63173;49.086;33.418;2023-11-21T12:02:56;100504.81;;;-2.28;41.30
74578;BME280;63173;49.086;33.418;2023-11-21T12:05:22;100514.47;;;-2.43;43.01
74578;BME280;63173;49.086;33.418;2023-11-21T12:07:49;100508.69;;;-2.56;42.77
74578;BME280;63173;49.086;33.418;2023-11-21T12:10:22;100508.69;;;-2.56;44.70
74578;BME280;63173;49.086;33.418;2023-11-21T12:13:00;100510.09;;;-1.97;42.23
74578;BME280;63173;49.086;33.418;2023-11-21T12:15:27;100510.53;;;-2.67;44.45
74578;BME280;63173;49.086;33.418;2023-11-21T12:17:57;100533.28;;;-2.58;44.12
74578;BME280;63173;49.086;33.418;2023-11-21T12:20:24;100522.19;;;-2.61;43.56
74578;BME280;63173;49.086;33.418;2023-11-21T12:22:51;100522.00;;;-2.50;42.13
74578;BME280;63173;49.086;33.418;2023-11-21T12:27:48;100523.13;;;-3.14;43.91
74578;BME280;63173;49.086;33.418;2023-11-21T12:30:21;100533.94;;;-2.41;43.76
74578;BME280;63173;49.086;33.418;2023-11-21T12:32:52;100531.50;;;-2.42;43.17
74578;BME280;63173;49.086;33.418;2023-11-21T12:35:19;100525.69;;;-2.19;42.96
74578;BME280;63173;49.086;33.418;2023-11-21T12:37:45;100530.84;;;-3.22;44.60
74578;BME280;63173;49.086;33.418;2023-11-21T12:40:12;100544.00;;;-2.68;44.08
74578;BME280;63173;49.086;33.418;2023-11-21T12:42:48;100541.38;;;-2.11;43.92
74578;BME280;63173;49.086;33.418;2023-11-21T12:47:49;100546.13;;;-2.38;44.09
74578;BME280;63173;49.086;33.418;2023-11-21T12:50:21;100543.59;;;-2.86;44.89
74578;BME280;63173;49.086;33.418;2023-11-21T12:52:49;100544.34;;;-2.96;44.61
74578;BME280;63173;49.086;33.418;2023-11-21T12:55:21;100541.81;;;-2.76;45.63
74578;BME280;63173;49.086;33.418;2023-11-21T12:57:48;100541.34;;;-3.26;46.50
74578;BME280;63173;49.086;33.418;2023-11-21T13:00:18;100550.06;;;-2.92;46.64
74578;BME280;63173;49.086;33.418;2023-11-21T13:02:57;100550.69;;;-2.80;46.87